sensor_id;sensor_type;location;lat;lon;timestamp;P1;durP1;ratioP1;P2;durP2;ratioP2
51523;SDS011;37610;51.790;21.590;2022-07-23T00:02:47;37.40;;;19.30;;
51523;SDS011;37610;51.790;21.590;2022-07-23T00:06:49;28.60;;;20.20;;
51523;SDS011;37610;51.790;21.590;2022-07-23T00:10:51;26.90;;;19.30;;
51523;SDS011;37610;51.790;21.590;2022-07-23T00:14:52;22.90;;;19.00;;
51523;SDS011;37610;51.790;21.590;2022-07-23T00:18:54;25.30;;;17.50;;
51523;SDS011;37610;51.790;21.590;2022-07-23T00:22:55;20.00;;;17.10;;
51523;SDS011;37610;51.790;21.590;2022-07-23T00:26:57;22.90;;;17.00;;
51523;SDS011;37610;51.790;21.590;2022-07-23T00:30:58;21.00;;;16.40;;
51523;SDS011;37610;51.790;21.590;2022-07-23T00:35:00;22.80;;;18.30;;
51523;SDS011;37610;51.790;21.590;2022-07-23T00:39:01;20.90;;;16.10;;
51523;SDS011;37610;51.790;21.590;2022-07-23T00:43:03;19.50;;;17.00;;
51523;SDS011;37610;51.790;21.590;2022-07-23T00:47:05;20.90;;;17.30;;
51523;SDS011;37610;51.790;21.590;2022-07-23T00:51:06;20.50;;;17.10;;
51523;SDS011;37610;51.790;21.590;2022-07-23T00:55:09;19.50;;;16.80;;
51523;SDS011;37610;51.790;21.590;2022-07-23T00:59:12;21.10;;;15.90;;
51523;SDS011;37610;51.790;21.590;2022-07-23T01:07:16;20.60;;;15.20;;
51523;SDS011;37610;51.790;21.590;2022-07-23T01:11:18;21.60;;;17.10;;
51523;SDS011;37610;51.790;21.590;2022-07-23T01:15:20;22.70;;;17.50;;
51523;SDS011;37610;51.790;21.590;2022-07-23T01:19:22;26.30;;;17.20;;
51523;SDS011;37610;51.790;21.590;2022-07-23T01:23:24;27.10;;;17.20;;
51523;SDS011;37610;51.790;21.590;2022-07-23T01:27:25;21.30;;;17.90;;
51523;SDS011;37610;51.790;21.590;2022-07-23T01:31:27;23.10;;;17.20;;
51523;SDS011;37610;51.790;21.590;2022-07-23T01:35:28;19.50;;;17.10;;
51523;SDS011;37610;51.790;21.590;2022-07-23T01:39:30;21.70;;;17.80;;
51523;SDS011;37610;51.790;21.590;2022-07-23T01:43:31;22.20;;;15.90;;
51523;SDS011;37610;51.790;21.590;2022-07-23T01:47:33;22.70;;;16.40;;
51523;SDS011;37610;51.790;21.590;2022-07-23T01:51:34;20.90;;;17.00;;
51523;SDS011;37610;51.790;21.590;2022-07-23T01:55:35;23.50;;;17.50;;
51523;SDS011;37610;51.790;21.590;2022-07-23T01:59:37;24.20;;;18.80;;
51523;SDS011;37610;51.790;21.590;2022-07-23T02:03:40;24.70;;;18.60;;
51523;SDS011;37610;51.790;21.590;2022-07-23T02:07:41;24.90;;;18.00;;
51523;SDS011;37610;51.790;21.590;2022-07-23T02:11:43;25.40;;;19.00;;
51523;SDS011;37610;51.790;21.590;2022-07-23T02:15:46;29.80;;;18.40;;
51523;SDS011;37610;51.790;21.590;2022-07-23T02:19:48;40.80;;;18.40;;
51523;SDS011;37610;51.790;21.590;2022-07-23T02:23:49;32.80;;;18.30;;
51523;SDS011;37610;51.790;21.590;2022-07-23T02:27:51;26.00;;;17.40;;
51523;SDS011;37610;51.790;21.590;2022-07-23T02:31:52;23.80;;;17.60;;
51523;SDS011;37610;51.790;21.590;2022-07-23T02:35:54;24.20;;;17.80;;
51523;SDS011;37610;51.790;21.590;2022-07-23T02:39:55;27.50;;;18.20;;
51523;SDS011;37610;51.790;21.590;2022-07-23T02:43:57;21.20;;;18.30;;
51523;SDS011;37610;51.790;21.590;2022-07-23T02:47:58;22.90;;;18.40;;
51523;SDS011;37610;51.790;21.590;2022-07-23T02:51:59;22.40;;;18.80;;
51523;SDS011;37610;51.790;21.590;2022-07-23T02:56:01;23.30;;;18.40;;
51523;SDS011;37610;51.790;21.590;2022-07-23T03:00:04;24.90;;;18.20;;
51523;SDS011;37610;51.790;21.590;2022-07-23T03:04:08;22.40;;;18.50;;
51523;SDS011;37610;51.790;21.590;2022-07-23T03:08:09;22.60;;;18.90;;
51523;SDS011;37610;51.790;21.590;2022-07-23T03:12:11;23.60;;;17.50;;
51523;SDS011;37610;51.790;21.590;2022-07-23T03:16:12;23.10;;;18.40;;
51523;SDS011;37610;51.790;21.590;2022-07-23T03:20:14;25.20;;;18.90;;
51523;SDS011;37610;51.790;21.590;2022-07-23T03:24:15;22.50;;;18.70;;
51523;SDS011;37610;51.790;21.590;2022-07-23T03:28:19;23.60;;;17.80;;
51523;SDS011;37610;51.790;21.590;2022-07-23T03:32:20;25.40;;;18.80;;
51523;SDS011;37610;51.790;21.590;2022-07-23T03:36:22;23.40;;;17.80;;
51523;SDS011;37610;51.790;21.590;2022-07-23T03:40:24;24.20;;;17.60;;
51523;SDS011;37610;51.790;21.590;2022-07-23T03:44:25;22.80;;;16.90;;
51523;SDS011;37610;51.790;21.590;2022-07-23T03:48:27;22.80;;;18.90;;
51523;SDS011;37610;51.790;21.590;2022-07-23T03:52:28;24.60;;;19.20;;
51523;SDS011;37610;51.790;21.590;2022-07-23T03:56:29;25.70;;;19.20;;
51523;SDS011;37610;51.790;21.590;2022-07-23T04:00:31;24.40;;;17.50;;
51523;SDS011;37610;51.790;21.590;2022-07-23T04:04:32;32.70;;;19.70;;
51523;SDS011;37610;51.790;21.590;2022-07-23T04:08:34;34.20;;;19.30;;
51523;SDS011;37610;51.790;21.590;2022-07-23T04:12:35;28.00;;;20.10;;
51523;SDS011;37610;51.790;21.590;2022-07-23T04:16:37;28.50;;;19.80;;
51523;SDS011;37610;51.790;21.590;2022-07-23T04:20:38;26.90;;;20.60;;
51523;SDS011;37610;51.790;21.590;2022-07-23T04:24:40;27.30;;;21.20;;
51523;SDS011;37610;51.790;21.590;2022-07-23T04:28:41;30.10;;;20.00;;
51523;SDS011;37610;51.790;21.590;2022-07-23T04:32:43;22.80;;;20.40;;
51523;SDS011;37610;51.790;21.590;2022-07-23T04:36:44;27.30;;;21.30;;
51523;SDS011;37610;51.790;21.590;2022-07-23T04:40:46;29.40;;;21.60;;
51523;SDS011;37610;51.790;21.590;2022-07-23T04:44:47;25.70;;;21.30;;
51523;SDS011;37610;51.790;21.590;2022-07-23T04:48:49;30.10;;;21.80;;
51523;SDS011;37610;51.790;21.590;2022-07-23T04:52:50;28.90;;;23.60;;
51523;SDS011;37610;51.790;21.590;2022-07-23T04:56:52;29.90;;;23.10;;
51523;SDS011;37610;51.790;21.590;2022-07-23T05:00:54;27.00;;;24.10;;
51523;SDS011;37610;51.790;21.590;2022-07-23T05:04:58;37.90;;;23.90;;
51523;SDS011;37610;51.790;21.590;2022-07-23T05:09:00;27.30;;;22.80;;
51523;SDS011;37610;51.790;21.590;2022-07-23T05:13:01;31.70;;;23.70;;
51523;SDS011;37610;51.790;21.590;2022-07-23T05:17:03;31.40;;;23.50;;
51523;SDS011;37610;51.790;21.590;2022-07-23T05:21:04;29.60;;;22.80;;
51523;SDS011;37610;51.790;21.590;2022-07-23T05:25:06;26.50;;;23.30;;
51523;SDS011;37610;51.790;21.590;2022-07-23T05:29:08;28.60;;;22.30;;
51523;SDS011;37610;51.790;21.590;2022-07-23T05:33:10;35.40;;;26.30;;
51523;SDS011;37610;51.790;21.590;2022-07-23T05:37:11;36.70;;;25.80;;
51523;SDS011;37610;51.790;21.590;2022-07-23T05:41:12;32.70;;;21.90;;
51523;SDS011;37610;51.790;21.590;2022-07-23T05:45:14;25.50;;;19.70;;
51523;SDS011;37610;51.790;21.590;2022-07-23T05:49:15;23.70;;;19.80;;
51523;SDS011;37610;51.790;21.590;2022-07-23T05:53:17;21.90;;;17.30;;
51523;SDS011;37610;51.790;21.590;2022-07-23T05:57:18;22.00;;;16.40;;
51523;SDS011;37610;51.790;21.590;2022-07-23T06:01:20;18.50;;;15.90;;
51523;SDS011;37610;51.790;21.590;2022-07-23T06:05:21;22.40;;;17.30;;
51523;SDS011;37610;51.790;21.590;2022-07-23T06:09:23;18.40;;;14.20;;
51523;SDS011;37610;51.790;21.590;2022-07-23T06:13:25;17.60;;;14.20;;
51523;SDS011;37610;51.790;21.590;2022-07-23T06:17:26;20.40;;;16.30;;
51523;SDS011;37610;51.790;21.590;2022-07-23T06:21:28;17.60;;;15.80;;
51523;SDS011;37610;51.790;21.590;2022-07-23T06:25:29;20.90;;;14.90;;
51523;SDS011;37610;51.790;21.590;2022-07-23T06:29:31;18.10;;;14.20;;
51523;SDS011;37610;51.790;21.590;2022-07-23T06:33:33;21.10;;;13.50;;
51523;SDS011;37610;51.790;21.590;2022-07-23T06:37:34;23.90;;;14.40;;
51523;SDS011;37610;51.790;21.590;2022-07-23T06:41:36;19.50;;;15.00;;
51523;SDS011;37610;51.790;21.590;2022-07-23T06:45:38;22.10;;;16.40;;
51523;SDS011;37610;51.790;21.590;2022-07-23T06:49:39;21.40;;;18.20;;
51523;SDS011;37610;51.790;21.590;2022-07-23T06:53:42;21.90;;;15.90;;
51523;SDS011;37610;51.790;21.590;2022-07-23T06:57:43;19.60;;;17.50;;
51523;SDS011;37610;51.790;21.590;2022-07-23T07:01:45;18.30;;;14.20;;
51523;SDS011;37610;51.790;21.590;2022-07-23T07:05:47;19.10;;;15.10;;
51523;SDS011;37610;51.790;21.590;2022-07-23T07:09:49;19.40;;;13.60;;
51523;SDS011;37610;51.790;21.590;2022-07-23T07:13:50;15.00;;;11.70;;
51523;SDS011;37610;51.790;21.590;2022-07-23T07:17:52;14.70;;;12.10;;
51523;SDS011;37610;51.790;21.590;2022-07-23T07:21:54;19.20;;;13.10;;
51523;SDS011;37610;51.790;21.590;2022-07-23T07:25:55;16.20;;;10.80;;
51523;SDS011;37610;51.790;21.590;2022-07-23T07:29:57;13.90;;;11.00;;
51523;SDS011;37610;51.790;21.590;2022-07-23T07:33:58;19.40;;;9.50;;
51523;SDS011;37610;51.790;21.590;2022-07-23T07:38:00;13.00;;;8.20;;
51523;SDS011;37610;51.790;21.590;2022-07-23T07:42:02;14.50;;;8.80;;
51523;SDS011;37610;51.790;21.590;2022-07-23T07:46:04;12.70;;;9.70;;
51523;SDS011;37610;51.790;21.590;2022-07-23T07:50:06;14.70;;;8.50;;
51523;SDS011;37610;51.790;21.590;2022-07-23T07:54:09;11.70;;;8.70;;
51523;SDS011;37610;51.790;21.590;2022-07-23T07:58:10;17.60;;;10.30;;
51523;SDS011;37610;51.790;21.590;2022-07-23T08:02:11;12.90;;;10.10;;
51523;SDS011;37610;51.790;21.590;2022-07-23T08:06:13;11.80;;;9.60;;
51523;SDS011;37610;51.790;21.590;2022-07-23T08:10:14;13.60;;;9.70;;
51523;SDS011;37610;51.790;21.590;2022-07-23T08:18:18;12.20;;;8.70;;
51523;SDS011;37610;51.790;21.590;2022-07-23T08:22:20;13.50;;;8.70;;
51523;SDS011;37610;51.790;21.590;2022-07-23T08:26:22;11.60;;;6.90;;
51523;SDS011;37610;51.790;21.590;2022-07-23T08:30:23;9.60;;;8.40;;
51523;SDS011;37610;51.790;21.590;2022-07-23T08:34:26;12.30;;;7.40;;
51523;SDS011;37610;51.790;21.590;2022-07-23T08:38:27;19.40;;;7.90;;
51523;SDS011;37610;51.790;21.590;2022-07-23T08:42:29;10.90;;;7.80;;
51523;SDS011;37610;51.790;21.590;2022-07-23T08:46:32;10.30;;;7.30;;
51523;SDS011;37610;51.790;21.590;2022-07-23T08:50:34;9.50;;;7.20;;
51523;SDS011;37610;51.790;21.590;2022-07-23T08:54:37;11.50;;;6.40;;
51523;SDS011;37610;51.790;21.590;2022-07-23T08:58:39;8.30;;;7.40;;
51523;SDS011;37610;51.790;21.590;2022-07-23T09:02:42;10.20;;;7.50;;
51523;SDS011;37610;51.790;21.590;2022-07-23T09:06:44;7.80;;;6.90;;
51523;SDS011;37610;51.790;21.590;2022-07-23T09:14:50;9.20;;;7.00;;
51523;SDS011;37610;51.790;21.590;2022-07-23T09:18:53;8.50;;;6.70;;
51523;SDS011;37610;51.790;21.590;2022-07-23T09:22:55;8.60;;;6.50;;
51523;SDS011;37610;51.790;21.590;2022-07-23T09:26:56;21.10;;;6.10;;
51523;SDS011;37610;51.790;21.590;2022-07-23T09:30:57;9.50;;;7.40;;
51523;SDS011;37610;51.790;21.590;2022-07-23T09:34:59;7.60;;;6.50;;
51523;SDS011;37610;51.790;21.590;2022-07-23T09:39:00;11.40;;;6.80;;
51523;SDS011;37610;51.790;21.590;2022-07-23T09:43:02;11.00;;;6.80;;
51523;SDS011;37610;51.790;21.590;2022-07-23T09:47:03;8.30;;;7.50;;
51523;SDS011;37610;51.790;21.590;2022-07-23T09:51:08;12.90;;;6.50;;
51523;SDS011;37610;51.790;21.590;2022-07-23T09:55:10;13.90;;;6.10;;
51523;SDS011;37610;51.790;21.590;2022-07-23T09:59:12;11.30;;;6.30;;
51523;SDS011;37610;51.790;21.590;2022-07-23T10:03:18;13.30;;;6.30;;
51523;SDS011;37610;51.790;21.590;2022-07-23T10:07:23;9.30;;;7.20;;
51523;SDS011;37610;51.790;21.590;2022-07-23T10:11:28;9.60;;;6.00;;
51523;SDS011;37610;51.790;21.590;2022-07-23T10:15:31;10.90;;;5.90;;
51523;SDS011;37610;51.790;21.590;2022-07-23T10:32:36;8.50;;;6.60;;
51523;SDS011;37610;51.790;21.590;2022-07-23T10:36:44;8.50;;;6.60;;
51523;SDS011;37610;51.790;21.590;2022-07-23T10:41:02;12.30;;;5.80;;
51523;SDS011;37610;51.790;21.590;2022-07-23T10:49:27;10.50;;;6.10;;
51523;SDS011;37610;51.790;21.590;2022-07-23T10:53:52;13.90;;;7.30;;
51523;SDS011;37610;51.790;21.590;2022-07-23T10:57:52;9.70;;;5.50;;
51523;SDS011;37610;51.790;21.590;2022-07-23T11:01:53;9.50;;;5.90;;
51523;SDS011;37610;51.790;21.590;2022-07-23T11:06:15;9.20;;;6.20;;
51523;SDS011;37610;51.790;21.590;2022-07-23T11:19:07;8.70;;;6.60;;
51523;SDS011;37610;51.790;21.590;2022-07-23T11:23:09;8.00;;;7.00;;
51523;SDS011;37610;51.790;21.590;2022-07-23T11:27:11;9.70;;;6.90;;
51523;SDS011;37610;51.790;21.590;2022-07-23T11:35:26;7.80;;;5.90;;
51523;SDS011;37610;51.790;21.590;2022-07-23T11:39:29;9.60;;;6.60;;
51523;SDS011;37610;51.790;21.590;2022-07-23T11:43:31;7.60;;;6.10;;
51523;SDS011;37610;51.790;21.590;2022-07-23T11:51:34;8.00;;;5.80;;
51523;SDS011;37610;51.790;21.590;2022-07-23T11:59:37;9.70;;;5.90;;
51523;SDS011;37610;51.790;21.590;2022-07-23T12:03:50;11.50;;;6.00;;
51523;SDS011;37610;51.790;21.590;2022-07-23T12:07:53;7.00;;;5.60;;
51523;SDS011;37610;51.790;21.590;2022-07-23T12:11:59;7.90;;;6.00;;
51523;SDS011;37610;51.790;21.590;2022-07-23T12:16:01;27.60;;;6.90;;
51523;SDS011;37610;51.790;21.590;2022-07-23T12:20:04;8.60;;;5.30;;
51523;SDS011;37610;51.790;21.590;2022-07-23T12:24:07;11.30;;;5.50;;
51523;SDS011;37610;51.790;21.590;2022-07-23T12:28:10;12.40;;;6.20;;
51523;SDS011;37610;51.790;21.590;2022-07-23T12:32:25;8.60;;;5.60;;
51523;SDS011;37610;51.790;21.590;2022-07-23T12:36:38;14.30;;;6.00;;
51523;SDS011;37610;51.790;21.590;2022-07-23T12:45:02;13.20;;;5.50;;
51523;SDS011;37610;51.790;21.590;2022-07-23T12:49:12;5.90;;;5.00;;
51523;SDS011;37610;51.790;21.590;2022-07-23T12:53:28;7.80;;;5.40;;
51523;SDS011;37610;51.790;21.590;2022-07-23T12:57:44;7.20;;;5.50;;
51523;SDS011;37610;51.790;21.590;2022-07-23T13:01:56;6.80;;;6.00;;
51523;SDS011;37610;51.790;21.590;2022-07-23T13:06:02;12.90;;;7.20;;
51523;SDS011;37610;51.790;21.590;2022-07-23T13:10:05;7.10;;;5.80;;
51523;SDS011;37610;51.790;21.590;2022-07-23T13:14:07;8.60;;;4.70;;
51523;SDS011;37610;51.790;21.590;2022-07-23T13:18:09;10.20;;;4.50;;
51523;SDS011;37610;51.790;21.590;2022-07-23T13:22:10;8.50;;;4.50;;
51523;SDS011;37610;51.790;21.590;2022-07-23T13:26:12;7.20;;;4.80;;
51523;SDS011;37610;51.790;21.590;2022-07-23T13:30:13;11.70;;;4.50;;
51523;SDS011;37610;51.790;21.590;2022-07-23T13:34:16;5.40;;;4.00;;
51523;SDS011;37610;51.790;21.590;2022-07-23T13:38:18;8.50;;;3.90;;
51523;SDS011;37610;51.790;21.590;2022-07-23T13:42:20;4.80;;;3.90;;
51523;SDS011;37610;51.790;21.590;2022-07-23T13:46:21;5.00;;;3.60;;
51523;SDS011;37610;51.790;21.590;2022-07-23T13:50:23;22.80;;;4.10;;
51523;SDS011;37610;51.790;21.590;2022-07-23T13:54:24;3.60;;;2.90;;
51523;SDS011;37610;51.790;21.590;2022-07-23T13:58:26;11.90;;;3.50;;
51523;SDS011;37610;51.790;21.590;2022-07-23T14:02:27;5.20;;;3.20;;
51523;SDS011;37610;51.790;21.590;2022-07-23T14:06:29;7.30;;;2.80;;
51523;SDS011;37610;51.790;21.590;2022-07-23T14:10:30;38.10;;;5.60;;
51523;SDS011;37610;51.790;21.590;2022-07-23T14:14:33;4.90;;;2.90;;
51523;SDS011;37610;51.790;21.590;2022-07-23T14:18:34;5.80;;;4.00;;
51523;SDS011;37610;51.790;21.590;2022-07-23T14:22:38;5.10;;;3.50;;
51523;SDS011;37610;51.790;21.590;2022-07-23T14:26:40;10.30;;;4.70;;
51523;SDS011;37610;51.790;21.590;2022-07-23T14:30:42;9.40;;;3.90;;
51523;SDS011;37610;51.790;21.590;2022-07-23T14:34:44;5.70;;;3.90;;
51523;SDS011;37610;51.790;21.590;2022-07-23T14:38:46;6.70;;;4.30;;
51523;SDS011;37610;51.790;21.590;2022-07-23T14:42:47;7.30;;;4.20;;
51523;SDS011;37610;51.790;21.590;2022-07-23T14:46:49;8.70;;;4.30;;
51523;SDS011;37610;51.790;21.590;2022-07-23T14:50:50;7.70;;;4.50;;
51523;SDS011;37610;51.790;21.590;2022-07-23T14:54:52;10.20;;;4.50;;
51523;SDS011;37610;51.790;21.590;2022-07-23T14:58:53;12.90;;;5.70;;
51523;SDS011;37610;51.790;21.590;2022-07-23T15:02:57;7.50;;;4.70;;
51523;SDS011;37610;51.790;21.590;2022-07-23T15:06:58;8.20;;;4.60;;
51523;SDS011;37610;51.790;21.590;2022-07-23T15:11:00;9.80;;;4.80;;
51523;SDS011;37610;51.790;21.590;2022-07-23T15:15:01;9.00;;;6.30;;
51523;SDS011;37610;51.790;21.590;2022-07-23T15:19:04;8.00;;;6.10;;
51523;SDS011;37610;51.790;21.590;2022-07-23T15:23:06;44.70;;;8.00;;
51523;SDS011;37610;51.790;21.590;2022-07-23T15:27:08;11.30;;;6.40;;
51523;SDS011;37610;51.790;21.590;2022-07-23T15:31:10;24.00;;;6.50;;
51523;SDS011;37610;51.790;21.590;2022-07-23T15:35:11;28.30;;;7.00;;
51523;SDS011;37610;51.790;21.590;2022-07-23T15:39:13;16.70;;;7.10;;
51523;SDS011;37610;51.790;21.590;2022-07-23T15:43:14;16.80;;;6.50;;
51523;SDS011;37610;51.790;21.590;2022-07-23T15:47:16;51.00;;;6.10;;
51523;SDS011;37610;51.790;21.590;2022-07-23T15:51:19;35.40;;;5.50;;
51523;SDS011;37610;51.790;21.590;2022-07-23T15:55:20;16.60;;;4.30;;
51523;SDS011;37610;51.790;21.590;2022-07-23T15:59:22;21.00;;;4.00;;
51523;SDS011;37610;51.790;21.590;2022-07-23T16:03:24;13.90;;;3.60;;
51523;SDS011;37610;51.790;21.590;2022-07-23T16:07:25;12.40;;;3.20;;
51523;SDS011;37610;51.790;21.590;2022-07-23T16:11:27;4.70;;;2.80;;
51523;SDS011;37610;51.790;21.590;2022-07-23T16:15:28;8.30;;;3.40;;
51523;SDS011;37610;51.790;21.590;2022-07-23T16:19:30;12.40;;;3.40;;
51523;SDS011;37610;51.790;21.590;2022-07-23T16:23:31;12.60;;;3.80;;
51523;SDS011;37610;51.790;21.590;2022-07-23T16:27:37;9.10;;;4.00;;
51523;SDS011;37610;51.790;21.590;2022-07-23T16:31:40;8.20;;;4.20;;
51523;SDS011;37610;51.790;21.590;2022-07-23T16:35:42;11.40;;;4.90;;
51523;SDS011;37610;51.790;21.590;2022-07-23T16:43:45;7.60;;;4.30;;
51523;SDS011;37610;51.790;21.590;2022-07-23T16:47:47;9.60;;;4.50;;
51523;SDS011;37610;51.790;21.590;2022-07-23T16:51:49;8.80;;;4.60;;
51523;SDS011;37610;51.790;21.590;2022-07-23T16:55:50;9.60;;;4.80;;
51523;SDS011;37610;51.790;21.590;2022-07-23T16:59:51;6.30;;;3.90;;
51523;SDS011;37610;51.790;21.590;2022-07-23T17:03:53;31.00;;;5.80;;
51523;SDS011;37610;51.790;21.590;2022-07-23T17:07:55;5.70;;;4.00;;
51523;SDS011;37610;51.790;21.590;2022-07-23T17:11:56;4.90;;;4.20;;
51523;SDS011;37610;51.790;21.590;2022-07-23T17:15:58;8.10;;;5.00;;
51523;SDS011;37610;51.790;21.590;2022-07-23T17:19:59;10.60;;;5.30;;
51523;SDS011;37610;51.790;21.590;2022-07-23T17:24:01;9.90;;;5.20;;
51523;SDS011;37610;51.790;21.590;2022-07-23T17:28:02;7.30;;;4.80;;
51523;SDS011;37610;51.790;21.590;2022-07-23T17:32:04;12.60;;;5.20;;
51523;SDS011;37610;51.790;21.590;2022-07-23T17:36:06;7.40;;;5.30;;
51523;SDS011;37610;51.790;21.590;2022-07-23T17:40:08;8.60;;;5.20;;
51523;SDS011;37610;51.790;21.590;2022-07-23T17:44:10;9.10;;;5.80;;
51523;SDS011;37610;51.790;21.590;2022-07-23T17:48:11;22.50;;;6.20;;
51523;SDS011;37610;51.790;21.590;2022-07-23T17:52:13;7.30;;;5.50;;
51523;SDS011;37610;51.790;21.590;2022-07-23T17:56:14;9.50;;;6.40;;
51523;SDS011;37610;51.790;21.590;2022-07-23T18:00:17;8.20;;;6.30;;
51523;SDS011;37610;51.790;21.590;2022-07-23T18:04:21;11.90;;;6.10;;
51523;SDS011;37610;51.790;21.590;2022-07-23T18:08:23;12.90;;;6.30;;
51523;SDS011;37610;51.790;21.590;2022-07-23T18:12:25;15.10;;;7.00;;
51523;SDS011;37610;51.790;21.590;2022-07-23T18:16:27;10.30;;;6.10;;
51523;SDS011;37610;51.790;21.590;2022-07-23T18:20:28;8.00;;;5.80;;
51523;SDS011;37610;51.790;21.590;2022-07-23T18:24:30;9.60;;;6.00;;
51523;SDS011;37610;51.790;21.590;2022-07-23T18:28:31;13.90;;;6.80;;
51523;SDS011;37610;51.790;21.590;2022-07-23T18:32:34;24.10;;;9.40;;
51523;SDS011;37610;51.790;21.590;2022-07-23T18:36:37;10.30;;;6.10;;
51523;SDS011;37610;51.790;21.590;2022-07-23T18:40:39;14.90;;;7.30;;
51523;SDS011;37610;51.790;21.590;2022-07-23T18:44:40;34.20;;;13.90;;
51523;SDS011;37610;51.790;21.590;2022-07-23T18:48:42;21.40;;;7.60;;
51523;SDS011;37610;51.790;21.590;2022-07-23T18:52:44;10.90;;;7.10;;
51523;SDS011;37610;51.790;21.590;2022-07-23T18:56:45;7.70;;;5.40;;
51523;SDS011;37610;51.790;21.590;2022-07-23T19:00:47;16.50;;;7.00;;
51523;SDS011;37610;51.790;21.590;2022-07-23T19:04:49;19.50;;;9.70;;
51523;SDS011;37610;51.790;21.590;2022-07-23T19:08:50;15.40;;;5.90;;
51523;SDS011;37610;51.790;21.590;2022-07-23T19:12:53;20.90;;;9.90;;
51523;SDS011;37610;51.790;21.590;2022-07-23T19:16:54;11.00;;;6.70;;
51523;SDS011;37610;51.790;21.590;2022-07-23T19:20:56;8.20;;;5.60;;
51523;SDS011;37610;51.790;21.590;2022-07-23T19:24:58;13.30;;;6.20;;
51523;SDS011;37610;51.790;21.590;2022-07-23T19:28:59;8.40;;;6.40;;
51523;SDS011;37610;51.790;21.590;2022-07-23T19:33:01;13.20;;;6.90;;
51523;SDS011;37610;51.790;21.590;2022-07-23T19:37:03;12.70;;;7.30;;
51523;SDS011;37610;51.790;21.590;2022-07-23T19:41:09;12.60;;;6.70;;
51523;SDS011;37610;51.790;21.590;2022-07-23T19:45:11;10.90;;;6.50;;
51523;SDS011;37610;51.790;21.590;2022-07-23T19:49:12;13.40;;;6.70;;
51523;SDS011;37610;51.790;21.590;2022-07-23T19:53:14;11.40;;;6.80;;
51523;SDS011;37610;51.790;21.590;2022-07-23T19:57:15;10.90;;;7.60;;
51523;SDS011;37610;51.790;21.590;2022-07-23T20:01:17;13.30;;;9.30;;
51523;SDS011;37610;51.790;21.590;2022-07-23T20:05:18;12.40;;;7.10;;
51523;SDS011;37610;51.790;21.590;2022-07-23T20:09:20;10.10;;;6.60;;
51523;SDS011;37610;51.790;21.590;2022-07-23T20:13:23;9.70;;;6.80;;
51523;SDS011;37610;51.790;21.590;2022-07-23T20:17:25;13.80;;;7.80;;
51523;SDS011;37610;51.790;21.590;2022-07-23T20:21:26;9.00;;;6.90;;
51523;SDS011;37610;51.790;21.590;2022-07-23T20:25:28;9.60;;;6.70;;
51523;SDS011;37610;51.790;21.590;2022-07-23T20:29:29;10.40;;;7.00;;
51523;SDS011;37610;51.790;21.590;2022-07-23T20:33:31;10.40;;;7.10;;
51523;SDS011;37610;51.790;21.590;2022-07-23T20:37:33;10.20;;;6.60;;
51523;SDS011;37610;51.790;21.590;2022-07-23T20:41:35;9.70;;;7.00;;
51523;SDS011;37610;51.790;21.590;2022-07-23T20:45:37;9.40;;;7.60;;
51523;SDS011;37610;51.790;21.590;2022-07-23T20:49:38;7.90;;;6.40;;
51523;SDS011;37610;51.790;21.590;2022-07-23T20:53:40;10.50;;;7.00;;
51523;SDS011;37610;51.790;21.590;2022-07-23T20:57:41;10.60;;;7.50;;
51523;SDS011;37610;51.790;21.590;2022-07-23T21:01:43;9.90;;;7.30;;
51523;SDS011;37610;51.790;21.590;2022-07-23T21:05:45;11.90;;;7.40;;
51523;SDS011;37610;51.790;21.590;2022-07-23T21:09:47;12.90;;;6.70;;
51523;SDS011;37610;51.790;21.590;2022-07-23T21:13:49;12.20;;;7.10;;
51523;SDS011;37610;51.790;21.590;2022-07-23T21:17:51;12.20;;;7.70;;
51523;SDS011;37610;51.790;21.590;2022-07-23T21:21:53;13.30;;;6.30;;
51523;SDS011;37610;51.790;21.590;2022-07-23T21:25:54;9.90;;;6.50;;
51523;SDS011;37610;51.790;21.590;2022-07-23T21:29:56;11.10;;;7.60;;
51523;SDS011;37610;51.790;21.590;2022-07-23T21:33:57;9.00;;;7.00;;
51523;SDS011;37610;51.790;21.590;2022-07-23T21:37:59;12.20;;;6.40;;
51523;SDS011;37610;51.790;21.590;2022-07-23T21:42:00;11.60;;;7.60;;
51523;SDS011;37610;51.790;21.590;2022-07-23T21:46:02;8.60;;;6.30;;
51523;SDS011;37610;51.790;21.590;2022-07-23T21:50:04;8.70;;;6.50;;
51523;SDS011;37610;51.790;21.590;2022-07-23T21:54:06;8.20;;;5.90;;
51523;SDS011;37610;51.790;21.590;2022-07-23T21:58:07;8.10;;;6.40;;
51523;SDS011;37610;51.790;21.590;2022-07-23T22:02:09;8.70;;;6.60;;
51523;SDS011;37610;51.790;21.590;2022-07-23T22:06:11;9.10;;;5.80;;
51523;SDS011;37610;51.790;21.590;2022-07-23T22:10:12;7.70;;;6.10;;
51523;SDS011;37610;51.790;21.590;2022-07-23T22:14:14;8.50;;;6.00;;
51523;SDS011;37610;51.790;21.590;2022-07-23T22:18:16;8.80;;;5.70;;
51523;SDS011;37610;51.790;21.590;2022-07-23T22:22:17;10.00;;;6.40;;
51523;SDS011;37610;51.790;21.590;2022-07-23T22:26:19;9.20;;;6.50;;
51523;SDS011;37610;51.790;21.590;2022-07-23T22:30:20;8.90;;;6.30;;
51523;SDS011;37610;51.790;21.590;2022-07-23T22:34:32;8.60;;;6.00;;
51523;SDS011;37610;51.790;21.590;2022-07-23T22:39:12;7.60;;;5.70;;
51523;SDS011;37610;51.790;21.590;2022-07-23T22:43:16;7.90;;;5.70;;
51523;SDS011;37610;51.790;21.590;2022-07-23T22:47:18;7.40;;;5.60;;
51523;SDS011;37610;51.790;21.590;2022-07-23T22:51:19;8.40;;;5.40;;
51523;SDS011;37610;51.790;21.590;2022-07-23T22:55:21;7.50;;;5.80;;
51523;SDS011;37610;51.790;21.590;2022-07-23T22:59:22;9.20;;;5.90;;
51523;SDS011;37610;51.790;21.590;2022-07-23T23:03:24;10.10;;;6.10;;
51523;SDS011;37610;51.790;21.590;2022-07-23T23:07:26;8.00;;;6.10;;
51523;SDS011;37610;51.790;21.590;2022-07-23T23:11:27;14.30;;;5.80;;
51523;SDS011;37610;51.790;21.590;2022-07-23T23:15:29;9.80;;;7.00;;
51523;SDS011;37610;51.790;21.590;2022-07-23T23:19:30;11.50;;;6.30;;
51523;SDS011;37610;51.790;21.590;2022-07-23T23:23:32;9.10;;;6.50;;
51523;SDS011;37610;51.790;21.590;2022-07-23T23:27:33;9.30;;;6.70;;
51523;SDS011;37610;51.790;21.590;2022-07-23T23:31:35;7.80;;;5.60;;
51523;SDS011;37610;51.790;21.590;2022-07-23T23:35:37;7.70;;;6.00;;
51523;SDS011;37610;51.790;21.590;2022-07-23T23:39:39;9.50;;;6.20;;
51523;SDS011;37610;51.790;21.590;2022-07-23T23:43:41;9.20;;;6.90;;
51523;SDS011;37610;51.790;21.590;2022-07-23T23:47:43;17.50;;;7.70;;
51523;SDS011;37610;51.790;21.590;2022-07-23T23:51:44;14.80;;;6.60;;
51523;SDS011;37610;51.790;21.590;2022-07-23T23:55:46;10.10;;;7.40;;
51523;SDS011;37610;51.790;21.590;2022-07-23T23:59:47;9.30;;;7.20;;
